Houma — WDD9648 — position and weather

sailwx.info

Track history (hours):
 
Tides and Currents Weather Stations Pressure Air Temp Water Temp Dewpoint Dewpoint Depression Visibility Wind Speed Wind Dir Waves Ship Positions

Houma

Owner: Kirby Inland Marine, LP, Houston, TX. More information available from US FCC via Universal Licensing System and Coast Guard Vessel Documentation Center.

Last reported at 2017-Dec-11 13:42 UTC. Time now 2017-Dec-13 20:46 UTC.
Position N 29°49' W 093°59'.

Length 206 m; draft 2.9 m.

Type: . MMSI: 367314420.

Date/timePositionNaut miles runAvg speedWind from/ knotsBaromVisibWave heightAir tempDewpointWater temp
2017-Dec-11 13:42N 29°49' W 093°59'1 2.6
2017-Dec-11 13:29N 29°49' W 093°59'50 4.3
2017-Dec-11 02:01N 29°28' W 094°51'1 7.8
2017-Dec-11 01:56N 29°28' W 094°51'3 7.7
2017-Dec-11 01:31N 29°31' W 094°53'4 7.7
2017-Dec-11 01:00N 29°34' W 094°56'4 7.3
2017-Dec-11 00:30N 29°38' W 094°58'4 7.7
2017-Dec-11 00:01N 29°41' W 094°59'3 6.8
2017-Dec-10 23:30N 29°44' W 095°02'4 1.0
2017-Dec-10 19:56N 29°46' W 095°05'2 0.3
2017-Dec-10 14:31N 29°45' W 095°06'0 0.0
2017-Dec-10 14:28N 29°45' W 095°06'0 0.0
2017-Dec-10 13:52N 29°45' W 095°06'0 0.0
2017-Dec-10 13:28N 29°45' W 095°06'0 0.0
2017-Dec-10 12:58N 29°45' W 095°06'0 0.0
2017-Dec-10 11:40N 29°45' W 095°06'0 0.0
2017-Dec-10 10:40N 29°45' W 095°06'0 0.0
2017-Dec-10 00:20N 29°45' W 095°06'1 2.2
2017-Dec-10 00:00N 29°45' W 095°06'2 4.7
2017-Dec-09 23:30N 29°44' W 095°03'3 5.5
2017-Dec-09 23:00N 29°42' W 095°01'3 5.8
2017-Dec-09 22:30N 29°40' W 094°59'3 6.9
2017-Dec-09 22:00N 29°37' W 094°57'3 6.5
2017-Dec-09 21:30N 29°34' W 094°55'  
2017-Dec-02 09:40N 29°25' W 094°50'3 7.7
2017-Dec-02 09:13N 29°28' W 094°51'2 7.6
2017-Dec-02 08:59N 29°30' W 094°52'4 7.7
2017-Dec-02 08:30N 29°33' W 094°55'4 7.8
2017-Dec-02 08:00N 29°36' W 094°57'4 7.9
2017-Dec-02 07:30N 29°40' W 094°59'4 7.0
2017-Dec-02 07:00N 29°43' W 095°01'3 6.6
2017-Dec-02 06:31N 29°45' W 095°04'0 0.1
2017-Dec-02 06:00N 29°45' W 095°04'1 2.3
2017-Dec-02 05:30N 29°46' W 095°05'1 1.2
2017-Dec-02 05:00N 29°46' W 095°06'1 0.5
2017-Dec-02 02:35N 29°46' W 095°05'1 4.1
2017-Dec-02 02:20N 29°46' W 095°05'0 0.4
2017-Dec-02 01:56N 29°45' W 095°06'  
Track history (hours):
 
Tides and Currents Weather Stations Pressure Air Temp Water Temp Dewpoint Dewpoint Depression Visibility Wind Speed Wind Dir Waves Ship Positions

Houma

Owner: Kirby Inland Marine, LP, Houston, TX. More information available from US FCC via Universal Licensing System and Coast Guard Vessel Documentation Center.

Last reported at 2017-Dec-11 13:42 UTC. Time now 2017-Dec-13 20:46 UTC.
Position N 29°49' W 093°59'.

Length 206 m; draft 2.9 m.

Type: . MMSI: 367314420.

Date/timePositionNaut miles runAvg speedWind from/ knotsBaromVisibWave heightAir tempDewpointWater temp
2017-Dec-11 13:42N 29°49' W 093°59'1 2.6
2017-Dec-11 13:29N 29°49' W 093°59'50 4.3
2017-Dec-11 02:01N 29°28' W 094°51'1 7.8
2017-Dec-11 01:56N 29°28' W 094°51'3 7.7
2017-Dec-11 01:31N 29°31' W 094°53'4 7.7
2017-Dec-11 01:00N 29°34' W 094°56'4 7.3
2017-Dec-11 00:30N 29°38' W 094°58'4 7.7
2017-Dec-11 00:01N 29°41' W 094°59'3 6.8
2017-Dec-10 23:30N 29°44' W 095°02'4 1.0
2017-Dec-10 19:56N 29°46' W 095°05'2 0.3
2017-Dec-10 14:31N 29°45' W 095°06'0 0.0
2017-Dec-10 14:28N 29°45' W 095°06'0 0.0
2017-Dec-10 13:52N 29°45' W 095°06'0 0.0
2017-Dec-10 13:28N 29°45' W 095°06'0 0.0
2017-Dec-10 12:58N 29°45' W 095°06'0 0.0
2017-Dec-10 11:40N 29°45' W 095°06'0 0.0
2017-Dec-10 10:40N 29°45' W 095°06'0 0.0
2017-Dec-10 00:20N 29°45' W 095°06'1 2.2
2017-Dec-10 00:00N 29°45' W 095°06'2 4.7
2017-Dec-09 23:30N 29°44' W 095°03'3 5.5
2017-Dec-09 23:00N 29°42' W 095°01'3 5.8
2017-Dec-09 22:30N 29°40' W 094°59'3 6.9
2017-Dec-09 22:00N 29°37' W 094°57'3 6.5
2017-Dec-09 21:30N 29°34' W 094°55'  
2017-Dec-02 09:40N 29°25' W 094°50'3 7.7
2017-Dec-02 09:13N 29°28' W 094°51'2 7.6
2017-Dec-02 08:59N 29°30' W 094°52'4 7.7
2017-Dec-02 08:30N 29°33' W 094°55'4 7.8
2017-Dec-02 08:00N 29°36' W 094°57'4 7.9
2017-Dec-02 07:30N 29°40' W 094°59'4 7.0
2017-Dec-02 07:00N 29°43' W 095°01'3 6.6
2017-Dec-02 06:31N 29°45' W 095°04'0 0.1
2017-Dec-02 06:00N 29°45' W 095°04'1 2.3
2017-Dec-02 05:30N 29°46' W 095°05'1 1.2
2017-Dec-02 05:00N 29°46' W 095°06'1 0.5
2017-Dec-02 02:35N 29°46' W 095°05'1 4.1
2017-Dec-02 02:20N 29°46' W 095°05'0 0.4
2017-Dec-02 01:56N 29°45' W 095°06'  

Dump ship's entire track history